Time;durP1;ratioP1;P1;durP2;ratioP2;P2;SDS_P1;SDS_P2;PMS_P1;PMS_P2;Temp;Humidity;BMP_temperature;BMP_pressure;BME280_temperature;BME280_humidity;BME280_pressure;Samples;Min_cycle;Max_cycle;Signal;HPM_P1;HPM_P2
2024/01/23 00:00:37;;;;;;;10.45;2.85;;;;;;;6.74;100.00;100480.63;5029594;28;20088;-82
2024/01/23 00:03:04;;;;;;;19.17;3.65;;;;;;;6.77;100.00;100480.66;5046712;28;20056;-79
2024/01/23 00:05:31;;;;;;;17.80;4.03;;;;;;;6.82;100.00;100489.38;5027000;28;20049;-80
2024/01/23 00:07:57;;;;;;;9.23;3.78;;;;;;;6.86;100.00;100498.06;5032269;28;20045;-79
2024/01/23 00:10:24;;;;;;;17.63;4.65;;;;;;;6.88;100.00;100502.41;5043430;28;20798;-81
2024/01/23 00:12:51;;;;;;;18.27;4.90;;;;;;;6.86;100.00;100524.06;5011522;28;20455;-79
2024/01/23 00:15:19;;;;;;;19.67;6.03;;;;;;;6.81;100.00;100507.56;5052163;28;20102;-78
2024/01/23 00:17:47;;;;;;;12.15;2.63;;;;;;;6.74;100.00;100512.75;5036100;28;20049;-82
2024/01/23 00:20:16;;;;;;;18.80;4.05;;;;;;;6.67;100.00;100502.31;5022987;28;20041;-80
2024/01/23 00:22:43;;;;;;;18.30;3.72;;;;;;;6.63;100.00;100501.41;5045113;28;20570;-80
2024/01/23 00:25:09;;;;;;;19.67;3.97;;;;;;;6.62;100.00;100499.66;5065310;28;20028;-80
2024/01/23 00:27:36;;;;;;;12.77;4.20;;;;;;;6.61;100.00;100498.81;5017015;28;20047;-81
2024/01/23 00:30:04;;;;;;;19.85;4.07;;;;;;;6.63;100.00;100511.81;5044376;28;20051;-79
2024/01/23 00:32:31;;;;;;;13.80;5.03;;;;;;;6.64;100.00;100513.56;5042045;28;20045;-79
2024/01/23 00:35:00;;;;;;;10.52;2.95;;;;;;;6.71;100.00;100517.91;5041127;28;20420;-78
2024/01/23 00:37:27;;;;;;;19.50;6.40;;;;;;;6.75;100.00;100535.31;5023237;28;20044;-81
2024/01/23 00:39:54;;;;;;;10.32;2.83;;;;;;;6.80;100.00;100517.09;5040104;28;20053;-81
2024/01/23 00:42:23;;;;;;;17.73;3.28;;;;;;;6.83;100.00;100526.66;5057989;28;20041;-79
2024/01/23 00:44:51;;;;;;;13.50;2.55;;;;;;;6.84;100.00;100524.03;5049149;28;20045;-81
2024/01/23 00:47:17;;;;;;;10.95;2.70;;;;;;;6.83;100.00;100516.25;5048306;28;20140;-77
2024/01/23 00:49:44;;;;;;;11.82;3.65;;;;;;;6.86;100.00;100530.13;5030539;28;20122;-78
2024/01/23 00:52:12;;;;;;;12.43;2.65;;;;;;;6.85;100.00;100536.19;5054279;28;20714;-80
2024/01/23 00:54:39;;;;;;;10.55;2.45;;;;;;;6.78;100.00;100531.84;5028815;28;20050;-79
2024/01/23 00:57:06;;;;;;;17.95;3.97;;;;;;;6.78;100.00;100539.66;5023998;28;20067;-81
2024/01/23 00:59:33;;;;;;;12.30;1.90;;;;;;;6.77;100.00;100554.38;5014956;28;20044;-80
2024/01/23 01:02:00;;;;;;;9.80;2.20;;;;;;;6.82;100.00;100557.00;5017845;28;20072;-80
2024/01/23 01:04:29;;;;;;;15.27;2.63;;;;;;;6.85;100.00;100559.63;5059511;28;20041;-79
2024/01/23 01:06:55;;;;;;;4.90;2.60;;;;;;;6.87;100.00;100562.22;5048899;28;20064;-81
2024/01/23 01:09:26;;;;;;;10.02;1.85;;;;;;;6.83;100.00;100565.66;5038016;28;20454;-81
2024/01/23 01:11:53;;;;;;;22.08;4.00;;;;;;;6.82;100.00;100570.03;5031363;28;20536;-79
2024/01/23 01:14:20;;;;;;;8.88;2.58;;;;;;;6.79;100.00;100568.28;5034594;28;20048;-81
2024/01/23 01:16:46;;;;;;;10.02;3.15;;;;;;;6.85;100.00;100577.84;5054223;28;20060;-81
2024/01/23 01:19:13;;;;;;;20.17;4.90;;;;;;;6.84;100.00;100590.84;5052099;28;20041;-80
2024/01/23 01:21:39;;;;;;;10.02;2.80;;;;;;;6.80;100.00;100592.53;5040787;28;20269;-80
2024/01/23 01:24:06;;;;;;;18.20;2.70;;;;;;;6.77;100.00;100588.19;5056203;28;20141;-79
2024/01/23 01:26:32;;;;;;;11.80;2.20;;;;;;;6.75;100.00;100599.44;5049278;28;20459;-80
2024/01/23 01:29:02;;;;;;;7.15;2.53;;;;;;;6.72;100.00;100594.25;5056372;28;20068;-81
2024/01/23 01:31:29;;;;;;;6.85;2.17;;;;;;;6.72;100.00;100589.03;5030747;28;20041;-79
2024/01/23 01:33:58;;;;;;;7.68;2.78;;;;;;;6.72;100.00;100604.66;5030839;28;20045;-80
2024/01/23 01:36:25;;;;;;;11.25;1.95;;;;;;;6.71;100.00;100597.69;5030961;28;20175;-80
2024/01/23 01:38:51;;;;;;;13.65;2.55;;;;;;;6.80;100.00;100608.16;5025997;28;20966;-78
2024/01/23 01:41:18;;;;;;;9.00;2.70;;;;;;;6.82;100.00;100609.06;5044666;28;20059;-78
2024/01/23 01:43:45;;;;;;;8.68;3.25;;;;;;;6.80;100.00;100610.75;5061877;28;20051;-79
2024/01/23 01:46:18;;;;;;;12.02;1.90;;;;;;;6.77;100.00;100608.16;5043573;28;20133;-79
2024/01/23 01:48:47;;;;;;;10.10;1.90;;;;;;;6.74;100.00;100609.00;5043576;28;20056;-82
2024/01/23 01:51:14;;;;;;;11.05;1.80;;;;;;;6.78;100.00;100610.75;5022901;28;20041;-80
2024/01/23 01:53:45;;;;;;;13.88;2.70;;;;;;;6.76;100.00;100609.88;5045126;28;20407;-82
2024/01/23 01:56:19;;;;;;;9.63;2.60;;;;;;;6.78;100.00;100623.75;5047895;28;20043;-80
2024/01/23 01:58:48;;;;;;;10.52;2.30;;;;;;;6.79;100.00;100620.31;5016176;28;20064;-80
2024/01/23 02:01:14;;;;;;;12.23;3.17;;;;;;;6.76;100.00;100622.88;5045978;28;20369;-81
2024/01/23 02:03:42;;;;;;;11.27;3.25;;;;;;;6.74;100.00;100628.94;5037813;28;20132;-79
2024/01/23 02:06:10;;;;;;;7.57;1.58;;;;;;;6.73;100.00;100629.81;5019456;28;20945;-79
2024/01/23 02:08:37;;;;;;;15.15;2.45;;;;;;;6.75;100.00;100630.69;5010868;28;20068;-79
2024/01/23 02:11:04;;;;;;;8.18;2.10;;;;;;;6.77;100.00;100634.16;5011051;28;20049;-79
2024/01/23 02:13:31;;;;;;;10.45;1.73;;;;;;;6.77;100.00;100641.97;5032834;28;20068;-80
2024/01/23 02:15:58;;;;;;;13.48;2.97;;;;;;;6.75;100.00;100654.97;5029093;28;20543;-79
2024/01/23 02:18:24;;;;;;;6.90;2.28;;;;;;;6.72;100.00;100651.47;5030428;28;20037;-80
2024/01/23 02:20:53;;;;;;;14.70;2.83;;;;;;;6.61;100.00;100641.00;5016581;28;20140;-81
2024/01/23 02:23:20;;;;;;;6.95;3.22;;;;;;;6.63;100.00;100639.28;5058007;28;20165;-80
2024/01/23 02:25:47;;;;;;;15.20;2.95;;;;;;;6.62;100.00;100641.00;5025926;28;20072;-81
2024/01/23 02:28:15;;;;;;;9.50;2.20;;;;;;;6.55;100.00;100651.34;5057361;28;20049;-78
2024/01/23 02:30:44;;;;;;;13.70;2.30;;;;;;;6.45;100.00;100655.59;5039314;28;20120;-79
2024/01/23 02:33:12;;;;;;;16.40;4.03;;;;;;;6.42;100.00;100664.25;5056913;28;20055;-79
2024/01/23 02:35:38;;;;;;;19.52;4.47;;;;;;;6.34;100.00;100670.25;5045227;28;20128;-80
2024/01/23 02:38:05;;;;;;;11.25;2.83;;;;;;;6.30;100.00;100671.97;5024992;28;20123;-80
2024/01/23 02:40:32;;;;;;;11.75;2.60;;;;;;;6.29;100.00;100658.06;5040240;28;20041;-80
2024/01/23 02:42:58;;;;;;;12.07;2.80;;;;;;;6.33;100.00;100656.38;5026235;28;20052;-81
2024/01/23 02:45:25;;;;;;;20.30;3.67;;;;;;;6.37;100.00;100665.06;5026724;28;20447;-79
2024/01/23 02:47:54;;;;;;;14.70;2.72;;;;;;;6.44;100.00;100665.16;5061722;28;20477;-81
2024/01/23 02:50:23;;;;;;;13.95;2.35;;;;;;;6.43;100.00;100663.41;5042911;28;20556;-82
2024/01/23 02:52:52;;;;;;;11.32;2.78;;;;;;;6.48;100.00;100670.34;5046449;28;20373;-79
2024/01/23 02:55:18;;;;;;;6.75;2.17;;;;;;;6.46;100.00;100672.94;5059919;28;20037;-82
2024/01/23 02:57:48;;;;;;;18.92;6.18;;;;;;;6.49;100.00;100675.56;5021576;28;20057;-81
2024/01/23 03:00:14;;;;;;;22.05;2.72;;;;;;;6.46;100.00;100681.63;5028226;28;20048;-79
2024/01/23 03:02:41;;;;;;;5.43;2.42;;;;;;;6.46;100.00;100686.81;5026937;28;20040;-79
2024/01/23 03:05:08;;;;;;;12.90;2.05;;;;;;;6.35;100.00;100698.88;5031169;28;20044;-81
2024/01/23 03:07:35;;;;;;;9.27;2.35;;;;;;;6.26;100.00;100704.84;5027517;28;20505;-78
2024/01/23 03:10:02;;;;;;;15.18;2.55;;;;;;;6.23;100.00;100689.22;5030623;28;20084;-78
2024/01/23 03:12:29;;;;;;;11.32;2.78;;;;;;;6.32;100.00;100724.81;5045221;28;20094;-79
2024/01/23 03:14:58;;;;;;;12.00;2.55;;;;;;;6.38;100.00;100731.84;5027394;28;20110;-79
2024/01/23 03:17:24;;;;;;;7.00;1.88;;;;;;;6.35;100.00;100724.88;5039987;28;20088;-80
2024/01/23 03:19:51;;;;;;;6.20;2.25;;;;;;;6.34;100.00;100723.13;5008665;28;21137;-79
2024/01/23 03:22:17;;;;;;;7.40;2.30;;;;;;;6.27;100.00;100730.00;5042252;28;20041;-81
2024/01/23 03:24:44;;;;;;;11.32;3.03;;;;;;;6.20;100.00;100737.72;5008686;28;20535;-79
2024/01/23 03:27:11;;;;;;;9.52;1.92;;;;;;;6.20;100.00;100751.56;5009900;28;20046;-81
2024/01/23 03:29:48;;;;;;;17.23;3.65;;;;;;;6.18;100.00;100740.31;5025420;28;20050;-79
2024/01/23 03:32:14;;;;;;;14.20;2.30;;;;;;;6.19;100.00;100742.06;5016839;28;20389;-79
2024/01/23 03:34:41;;;;;;;8.48;2.47;;;;;;;6.16;100.00;100754.13;5040606;28;20689;-80
2024/01/23 03:37:08;;;;;;;13.77;2.53;;;;;;;6.10;100.00;100757.53;5029028;28;20500;-82
2024/01/23 03:39:34;;;;;;;12.68;1.90;;;;;;;6.08;100.00;100770.50;5022177;28;20057;-80
2024/01/23 03:42:05;;;;;;;10.52;2.63;;;;;;;6.12;100.00;100774.88;5036515;28;20458;-80
2024/01/23 03:44:35;;;;;;;4.22;1.67;;;;;;;6.16;100.00;100777.53;5027762;28;20459;-78
2024/01/23 03:47:02;;;;;;;7.18;2.25;;;;;;;6.25;100.00;100777.63;5039384;28;20042;-79
2024/01/23 03:49:28;;;;;;;5.32;1.63;;;;;;;6.27;100.00;100776.78;4991420;28;20092;-79
2024/01/23 03:51:55;;;;;;;5.90;2.45;;;;;;;6.27;100.00;100775.91;5027645;28;20048;-79
2024/01/23 03:54:22;;;;;;;18.75;2.40;;;;;;;6.29;100.00;100788.06;5050651;28;20069;-81
2024/01/23 03:56:49;;;;;;;11.95;2.38;;;;;;;6.31;100.00;100784.59;5033307;28;20095;-80
2024/01/23 03:59:15;;;;;;;7.45;2.17;;;;;;;6.32;99.71;100786.38;5017211;28;20041;-80
2024/01/23 04:01:42;;;;;;;8.23;1.85;;;;;;;6.38;99.32;100796.84;5041198;28;20674;-81
2024/01/23 04:04:08;;;;;;;13.65;2.40;;;;;;;6.41;98.97;100794.25;4993131;28;20049;-78
2024/01/23 04:06:35;;;;;;;11.85;2.28;;;;;;;6.43;99.01;100801.22;5033592;28;20050;-84
2024/01/23 04:09:03;;;;;;;10.10;1.85;;;;;;;6.45;98.02;100798.63;5004423;28;20103;-79
2024/01/23 04:11:30;;;;;;;7.50;1.90;;;;;;;6.47;97.89;100799.53;5027772;28;20037;-80
2024/01/23 04:13:57;;;;;;;8.07;2.20;;;;;;;6.48;98.30;100811.69;5039058;28;20079;-79
2024/01/23 04:16:22;;;;;;;10.90;2.70;;;;;;;6.46;98.99;100823.78;5018085;28;20049;-81
2024/01/23 04:18:49;;;;;;;8.73;2.60;;;;;;;6.45;99.65;100806.44;5022870;28;20050;-80
2024/01/23 04:21:17;;;;;;;14.02;2.60;;;;;;;6.45;99.88;100819.44;5034645;28;20130;-80
2024/01/23 04:23:43;;;;;;;17.70;2.60;;;;;;;6.44;100.00;100825.47;5040009;28;20041;-78
2024/01/23 04:26:10;;;;;;;12.07;3.47;;;;;;;6.43;100.00;100840.22;5055446;28;20049;-81
2024/01/23 04:28:37;;;;;;;13.52;2.58;;;;;;;6.41;100.00;100835.88;5029242;28;20803;-79
2024/01/23 04:31:04;;;;;;;15.35;3.42;;;;;;;6.42;100.00;100837.63;5027233;28;20049;-80
2024/01/23 04:33:30;;;;;;;11.07;2.80;;;;;;;6.42;99.42;100829.81;5040553;28;20041;-79
2024/01/23 04:35:57;;;;;;;9.60;2.17;;;;;;;6.47;99.03;100843.75;5027268;28;20047;-80
2024/01/23 04:38:23;;;;;;;14.77;3.33;;;;;;;6.46;99.46;100847.19;5058440;28;20071;-79
2024/01/23 04:40:50;;;;;;;8.35;2.40;;;;;;;6.43;99.38;100848.03;5029414;28;20068;-80
2024/01/23 04:43:21;;;;;;;7.30;1.60;;;;;;;6.43;99.12;100865.38;5066872;28;20076;-79
2024/01/23 04:45:48;;;;;;;5.68;2.05;;;;;;;6.43;99.61;100860.16;5052173;28;20120;-80
2024/01/23 04:48:17;;;;;;;16.08;3.85;;;;;;;6.39;99.79;100874.00;5033067;28;20491;-79
2024/01/23 04:50:44;;;;;;;9.60;2.15;;;;;;;6.37;100.00;100867.88;5028726;28;20559;-78
2024/01/23 04:53:10;;;;;;;9.18;2.08;;;;;;;6.36;99.57;100884.34;5046266;28;20049;-79
2024/01/23 04:55:37;;;;;;;17.38;2.70;;;;;;;6.37;100.00;100891.28;5032744;28;20056;-79
2024/01/23 04:58:03;;;;;;;13.60;2.65;;;;;;;6.36;99.78;100886.94;5015388;28;20049;-79
2024/01/23 05:00:35;;;;;;;7.85;1.50;;;;;;;6.37;100.00;100893.88;5014087;28;20464;-81
2024/01/23 05:03:02;;;;;;;8.88;1.88;;;;;;;6.30;100.00;100895.56;5037508;28;20052;-79
2024/01/23 05:05:29;;;;;;;11.30;3.13;;;;;;;6.34;100.00;100919.88;5021991;28;20063;-81
2024/01/23 05:07:55;;;;;;;16.05;2.28;;;;;;;6.32;100.00;100913.75;5016339;28;20107;-80
2024/01/23 05:10:25;;;;;;;11.98;3.90;;;;;;;6.32;100.00;100919.81;5031172;28;20041;-79
2024/01/23 05:12:51;;;;;;;13.38;2.30;;;;;;;6.35;100.00;100935.47;5008380;28;20041;-82
2024/01/23 05:15:18;;;;;;;7.93;2.10;;;;;;;6.37;100.00;100948.50;5046645;28;20051;-79
2024/01/23 05:17:44;;;;;;;8.02;1.83;;;;;;;6.38;100.00;100958.91;5027900;28;20063;-81
2024/01/23 05:20:11;;;;;;;10.88;1.92;;;;;;;6.39;100.00;100967.59;5014418;28;20049;-81
2024/01/23 05:22:38;;;;;;;17.52;3.30;;;;;;;6.36;100.00;100978.84;5048087;28;20040;-80
2024/01/23 05:25:06;;;;;;;10.50;2.40;;;;;;;6.33;100.00;100975.31;5045721;28;20107;-82
2024/01/23 05:27:33;;;;;;;11.85;1.52;;;;;;;6.30;100.00;100973.53;5054807;28;20044;-80
2024/01/23 05:29:59;;;;;;;8.85;2.45;;;;;;;6.29;100.00;100977.84;5027240;28;20056;-82
2024/01/23 05:32:26;;;;;;;13.10;4.35;;;;;;;6.27;100.00;100979.56;5026881;28;20387;-80
2024/01/23 05:34:52;;;;;;;11.57;3.20;;;;;;;6.29;100.00;100977.00;5040536;28;20048;-80
2024/01/23 05:37:20;;;;;;;11.13;2.20;;;;;;;6.22;100.00;100976.03;5030861;28;20048;-81
2024/01/23 05:39:46;;;;;;;8.57;1.88;;;;;;;6.26;100.00;100988.22;5027463;28;20049;-82
2024/01/23 05:42:13;;;;;;;9.43;2.85;;;;;;;6.24;100.00;100995.13;5025881;28;20489;-81
2024/01/23 05:44:39;;;;;;;17.20;3.08;;;;;;;6.24;100.00;101000.31;5014862;28;20550;-81
2024/01/23 05:47:06;;;;;;;15.77;2.97;;;;;;;6.29;100.00;101009.06;5059991;28;20551;-81
2024/01/23 05:49:33;;;;;;;11.13;2.53;;;;;;;6.29;100.00;101009.06;5028310;28;20052;-79
2024/01/23 05:52:00;;;;;;;29.33;3.67;;;;;;;6.33;100.00;101006.50;5059202;28;20041;-79
2024/01/23 05:54:26;;;;;;;13.68;3.08;;;;;;;6.31;100.00;101016.91;5043618;28;20049;-81
2024/01/23 05:56:52;;;;;;;7.70;2.22;;;;;;;6.33;100.00;101022.97;5054366;28;20656;-82
2024/01/23 05:59:19;;;;;;;8.85;2.47;;;;;;;6.31;100.00;101022.09;5055940;28;20053;-80
2024/01/23 06:01:46;;;;;;;10.65;2.75;;;;;;;6.32;100.00;101035.97;5049327;28;20037;-81
2024/01/23 06:04:12;;;;;;;10.93;1.65;;;;;;;6.30;100.00;101046.34;5032845;28;20049;-81
2024/01/23 06:06:43;;;;;;;12.02;2.58;;;;;;;6.35;100.00;101052.50;5023319;28;20053;-81
2024/01/23 06:09:10;;;;;;;22.15;3.00;;;;;;;6.37;100.00;101055.09;5023735;28;20132;-79
2024/01/23 06:11:39;;;;;;;20.02;2.78;;;;;;;6.36;100.00;101053.34;5029610;28;20049;-79
2024/01/23 06:14:08;;;;;;;15.63;2.60;;;;;;;6.31;100.00;101052.41;5032376;28;20103;-80
2024/01/23 06:16:35;;;;;;;10.25;2.30;;;;;;;6.32;100.00;101051.56;5023108;28;20049;-82
2024/01/23 06:19:02;;;;;;;13.38;2.38;;;;;;;6.31;100.00;101065.41;5037287;28;20063;-81
2024/01/23 06:21:29;;;;;;;13.50;3.83;;;;;;;6.35;100.00;101075.91;5021583;28;20057;-81
2024/01/23 06:23:55;;;;;;;10.45;2.08;;;;;;;6.33;100.00;101087.13;5026970;28;20135;-79
2024/01/23 06:26:22;;;;;;;17.83;3.78;;;;;;;6.33;100.00;101092.31;5027509;28;20403;-80
2024/01/23 06:28:48;;;;;;;13.60;3.00;;;;;;;6.32;100.00;101093.16;5009522;28;20064;-81
2024/01/23 06:31:15;;;;;;;15.70;3.78;;;;;;;6.36;100.00;101095.84;5028375;28;20052;-81
2024/01/23 06:33:42;;;;;;;12.15;2.13;;;;;;;6.39;100.00;101095.03;5030188;28;20135;-81
2024/01/23 06:36:08;;;;;;;23.63;2.97;;;;;;;6.36;100.00;101094.97;5042254;28;20045;-83
2024/01/23 06:38:35;;;;;;;16.77;3.15;;;;;;;6.35;100.00;101094.09;5041352;28;20045;-81
2024/01/23 06:41:02;;;;;;;19.70;3.67;;;;;;;6.32;100.00;101109.63;5026816;28;20144;-81
2024/01/23 06:43:28;;;;;;;21.70;3.92;;;;;;;6.27;100.00;101119.97;5039996;28;20058;-83
2024/01/23 06:45:57;;;;;;;12.82;2.83;;;;;;;6.32;100.00;101122.63;5042958;28;20059;-80
2024/01/23 06:48:23;;;;;;;11.57;2.70;;;;;;;6.25;100.00;101121.66;5011930;28;20041;-83
2024/01/23 06:50:54;;;;;;;15.48;3.03;;;;;;;6.23;100.00;101125.09;5047544;28;20396;-81
2024/01/23 06:53:21;;;;;;;13.68;3.20;;;;;;;6.21;100.00;101130.25;5035368;28;20045;-81
2024/01/23 06:55:53;;;;;;;14.90;2.35;;;;;;;6.19;100.00;101131.97;5023825;28;20072;-80
2024/01/23 06:58:19;;;;;;;14.38;3.60;;;;;;;6.21;100.00;101155.41;5031575;28;20414;-83
2024/01/23 07:00:47;;;;;;;13.85;2.92;;;;;;;6.20;100.00;101151.03;5016986;28;20048;-81
2024/01/23 07:03:14;;;;;;;17.13;3.15;;;;;;;6.10;100.00;101161.28;5066011;28;20045;-83
2024/01/23 07:05:40;;;;;;;15.80;3.55;;;;;;;5.97;100.00;101146.25;5026442;28;20063;-81
2024/01/23 07:08:07;;;;;;;14.75;3.78;;;;;;;5.99;100.00;101156.75;5054282;28;20049;-81
2024/01/23 07:10:33;;;;;;;10.65;2.30;;;;;;;5.99;100.00;101165.41;5032748;28;20069;-80
2024/01/23 07:13:00;;;;;;;14.18;4.40;;;;;;;5.96;100.00;101168.78;5043529;28;20041;-81
2024/01/23 07:15:30;;;;;;;10.65;2.65;;;;;;;5.99;100.00;101169.75;5026761;28;20131;-81
2024/01/23 07:18:00;;;;;;;20.38;3.63;;;;;;;6.05;100.00;101175.91;5062744;28;20389;-83
2024/01/23 07:20:27;;;;;;;12.13;3.20;;;;;;;5.99;100.00;101173.19;5037255;28;20084;-84
2024/01/23 07:22:54;;;;;;;15.02;2.63;;;;;;;6.03;100.00;101190.59;5048510;28;20134;-81
2024/01/23 07:25:20;;;;;;;21.08;4.25;;;;;;;6.05;100.00;101201.91;5040129;28;20447;-81
2024/01/23 07:27:50;;;;;;;12.82;3.17;;;;;;;6.03;100.00;101205.31;5040090;28;20205;-82
2024/01/23 07:30:19;;;;;;;10.55;3.75;;;;;;;6.03;100.00;101205.31;5042177;28;20235;-82
2024/01/23 07:32:46;;;;;;;19.27;5.00;;;;;;;6.09;100.00;101214.13;5035925;28;20037;-81
2024/01/23 07:35:14;;;;;;;9.95;2.58;;;;;;;6.11;100.00;101214.13;5053995;28;20149;-81
2024/01/23 07:37:40;;;;;;;13.77;4.15;;;;;;;6.16;100.00;101224.63;5029981;28;20059;-82
2024/01/23 07:40:07;;;;;;;21.40;4.88;;;;;;;6.16;100.00;101222.91;5049033;28;20063;-81
2024/01/23 07:42:34;;;;;;;14.32;3.10;;;;;;;6.18;100.00;101231.59;5054464;28;20136;-81
2024/01/23 07:45:00;;;;;;;20.77;3.47;;;;;;;6.21;100.00;101234.25;5039906;28;20037;-81
2024/01/23 07:47:27;;;;;;;19.23;3.70;;;;;;;6.20;100.00;101237.69;5041965;28;20425;-81
2024/01/23 07:49:54;;;;;;;21.27;3.78;;;;;;;6.19;100.00;101230.78;5040082;28;20091;-81
2024/01/23 07:52:21;;;;;;;15.18;4.10;;;;;;;6.25;100.00;101250.78;5050641;28;20041;-82
2024/01/23 07:54:48;;;;;;;14.07;2.95;;;;;;;6.20;100.00;101255.91;5052778;28;20053;-82
2024/01/23 07:57:14;;;;;;;10.88;3.42;;;;;;;6.20;100.00;101242.91;5028594;28;20036;-80
2024/01/23 07:59:41;;;;;;;25.38;4.70;;;;;;;6.26;100.00;101260.34;5034565;28;20046;-81
2024/01/23 08:02:07;;;;;;;16.92;5.63;;;;;;;6.23;100.00;101268.06;5030699;28;20072;-82
2024/01/23 08:04:34;;;;;;;19.10;4.30;;;;;;;6.26;100.00;101271.63;5052005;28;20036;-82
2024/01/23 08:07:00;;;;;;;19.23;3.83;;;;;;;6.26;100.00;101283.75;5009031;28;20041;-80
2024/01/23 08:09:27;;;;;;;19.00;3.38;;;;;;;6.26;100.00;101271.63;5053499;28;20588;-80
2024/01/23 08:11:54;;;;;;;20.60;4.07;;;;;;;6.26;100.00;101284.63;5040686;28;20045;-82
2024/01/23 08:14:22;;;;;;;14.95;3.55;;;;;;;6.29;100.00;101287.25;5007807;28;20102;-82
2024/01/23 08:16:49;;;;;;;28.80;3.95;;;;;;;6.27;100.00;101286.38;5041218;28;20048;-81
2024/01/23 08:19:16;;;;;;;11.23;3.28;;;;;;;6.27;100.00;101294.19;5023912;28;20147;-80
2024/01/23 08:21:42;;;;;;;11.52;4.10;;;;;;;6.36;100.00;101300.38;5027615;28;20534;-80
2024/01/23 08:24:09;;;;;;;15.60;3.65;;;;;;;6.36;100.00;101311.69;5029620;28;20072;-82
2024/01/23 08:26:36;;;;;;;18.35;3.38;;;;;;;6.33;100.00;101311.59;5034638;28;20488;-82
2024/01/23 08:29:02;;;;;;;21.70;4.90;;;;;;;6.33;100.00;101326.34;5037613;28;20188;-80
2024/01/23 08:31:30;;;;;;;19.48;3.55;;;;;;;6.35;100.00;101335.03;5057161;28;20040;-81
2024/01/23 08:33:57;;;;;;;17.35;4.97;;;;;;;6.38;100.00;101330.78;5026462;28;20053;-81
2024/01/23 08:36:24;;;;;;;19.10;4.50;;;;;;;6.39;100.00;101342.06;5043636;28;20049;-82
2024/01/23 08:38:50;;;;;;;16.60;4.18;;;;;;;6.38;100.00;101355.91;5046690;28;20073;-79
2024/01/23 08:41:20;;;;;;;19.73;3.60;;;;;;;6.39;100.00;101358.53;5017920;28;20048;-80
2024/01/23 08:43:46;;;;;;;18.90;3.97;;;;;;;6.38;100.00;101361.97;5035300;28;20128;-80
2024/01/23 08:46:16;;;;;;;24.27;4.03;;;;;;;6.40;100.00;101375.00;5038625;28;20049;-80
2024/01/23 08:48:42;;;;;;;17.42;4.30;;;;;;;6.41;100.00;101385.47;5029733;28;20051;-80
2024/01/23 08:51:10;;;;;;;29.90;5.38;;;;;;;6.39;100.00;101391.50;5022390;28;20052;-80
2024/01/23 08:53:40;;;;;;;11.80;2.67;;;;;;;6.38;100.00;101401.00;5043054;28;20060;-83
2024/01/23 08:56:06;;;;;;;16.20;3.65;;;;;;;6.40;100.00;101408.81;5021446;28;20050;-80
2024/01/23 08:58:33;;;;;;;11.93;3.42;;;;;;;6.40;100.00;101403.63;5040765;28;20048;-81
2024/01/23 09:01:00;;;;;;;25.65;3.78;;;;;;;6.34;100.00;101429.53;5048588;28;20126;-82
2024/01/23 09:03:29;;;;;;;13.73;4.57;;;;;;;6.33;100.00;101425.16;5042235;28;20037;-81
2024/01/23 09:05:59;;;;;;;21.73;3.47;;;;;;;6.35;100.00;101434.75;5029403;28;20063;-81
2024/01/23 09:08:27;;;;;;;20.48;4.30;;;;;;;6.33;100.00;101431.22;5046641;28;20665;-81
2024/01/23 09:10:54;;;;;;;20.58;3.42;;;;;;;6.37;100.00;101438.25;5047238;28;20434;-80
2024/01/23 09:13:20;;;;;;;17.92;3.42;;;;;;;6.31;100.00;101443.34;5040851;28;20055;-81
2024/01/23 09:15:47;;;;;;;18.83;5.25;;;;;;;6.32;100.00;101454.59;5022224;28;20059;-80
2024/01/23 09:18:14;;;;;;;22.50;5.63;;;;;;;6.36;100.00;101448.63;5025713;28;20049;-80
2024/01/23 09:20:40;;;;;;;17.58;4.65;;;;;;;6.36;100.00;101465.13;5017671;28;20481;-81
2024/01/23 09:23:07;;;;;;;13.82;3.83;;;;;;;6.35;100.00;101465.06;5053824;28;20034;-82
2024/01/23 09:25:34;;;;;;;20.50;4.18;;;;;;;6.38;100.00;101471.22;5022380;28;20761;-80
2024/01/23 09:28:04;;;;;;;11.73;3.97;;;;;;;6.39;100.00;101467.78;5016771;28;20454;-81
2024/01/23 09:30:31;;;;;;;17.45;6.90;;;;;;;6.46;100.00;101481.78;5032587;28;20045;-82
2024/01/23 09:33:02;;;;;;;10.00;3.22;;;;;;;6.46;100.00;101490.44;5049677;28;20472;-83
2024/01/23 09:35:34;;;;;;;22.55;4.60;;;;;;;6.41;100.00;101484.31;5073969;28;20056;-80
2024/01/23 09:38:06;;;;;;;16.10;5.32;;;;;;;6.49;100.00;101494.84;5048592;28;20049;-83
2024/01/23 09:40:35;;;;;;;21.38;4.82;;;;;;;6.50;100.00;101490.53;5055378;28;20504;-82
2024/01/23 09:43:03;;;;;;;20.98;3.95;;;;;;;6.52;100.00;101504.44;5045990;28;20037;-80
2024/01/23 09:45:30;;;;;;;17.70;3.38;;;;;;;6.55;100.00;101509.72;5017735;28;20095;-82
2024/01/23 09:47:57;;;;;;;24.30;5.78;;;;;;;6.54;100.00;101514.03;5067288;28;20041;-79
2024/01/23 09:50:27;;;;;;;10.95;3.90;;;;;;;6.54;100.00;101507.94;5020581;28;20053;-82
2024/01/23 09:52:55;;;;;;;19.73;4.35;;;;;;;6.55;100.00;101513.19;5064716;28;20068;-82
2024/01/23 09:55:22;;;;;;;18.65;4.65;;;;;;;6.59;100.00;101511.53;5048962;28;20091;-81
2024/01/23 09:57:52;;;;;;;16.98;3.80;;;;;;;6.57;100.00;101515.81;5031393;28;20046;-81
2024/01/23 10:00:19;;;;;;;21.35;6.20;;;;;;;6.52;100.00;101510.53;5032481;28;20045;-80
2024/01/23 10:02:46;;;;;;;20.67;4.68;;;;;;;6.52;100.00;101513.13;5052174;28;20530;-81
2024/01/23 10:05:15;;;;;;;15.60;3.40;;;;;;;6.56;100.00;101511.47;5036009;28;20118;-80
2024/01/23 10:07:46;;;;;;;17.10;4.65;;;;;;;6.60;100.00;101519.38;5043912;28;20057;-81
2024/01/23 10:10:18;;;;;;;22.88;4.70;;;;;;;6.59;100.00;101516.75;5043083;28;20045;-81
2024/01/23 10:12:50;;;;;;;20.10;4.85;;;;;;;6.57;100.00;101510.59;5035248;28;20450;-82
2024/01/23 10:15:21;;;;;;;29.15;4.30;;;;;;;6.60;100.00;101521.97;5060958;28;20042;-80
2024/01/23 10:17:48;;;;;;;14.55;3.97;;;;;;;6.60;100.00;101528.91;5019302;28;20440;-84
2024/01/23 10:20:18;;;;;;;12.13;4.85;;;;;;;6.61;100.00;101533.28;5043617;28;20733;-82
2024/01/23 10:22:48;;;;;;;19.90;4.97;;;;;;;6.69;100.00;101538.59;5032579;28;20048;-80
2024/01/23 10:25:20;;;;;;;17.25;4.38;;;;;;;6.67;100.00;101540.31;5054448;28;20106;-80
2024/01/23 10:27:56;;;;;;;19.45;4.80;;;;;;;6.69;100.00;101549.91;5026974;28;20048;-80
2024/01/23 10:30:25;;;;;;;15.75;3.85;;;;;;;6.78;100.00;101554.44;5031063;28;20048;-82
2024/01/23 10:32:52;;;;;;;21.85;5.55;;;;;;;6.81;100.00;101557.09;5033308;28;20041;-81
2024/01/23 10:35:25;;;;;;;22.33;4.57;;;;;;;6.80;100.00;101563.16;5032676;28;20560;-82
2024/01/23 10:37:56;;;;;;;16.35;4.15;;;;;;;6.85;100.00;101560.66;5052086;28;20127;-83
2024/01/23 10:40:24;;;;;;;15.68;4.07;;;;;;;6.93;100.00;101549.53;5048418;28;20056;-81
2024/01/23 10:42:51;;;;;;;14.57;3.22;;;;;;;6.95;100.00;101550.44;5018782;28;20049;-82
2024/01/23 10:45:21;;;;;;;19.88;5.22;;;;;;;7.02;100.00;101550.59;5033783;28;20124;-83
2024/01/23 10:47:48;;;;;;;14.18;4.32;;;;;;;7.05;100.00;101545.44;5047146;28;20063;-83
2024/01/23 10:50:16;;;;;;;17.65;3.80;;;;;;;7.18;100.00;101537.00;5049495;28;20075;-82
2024/01/23 10:52:48;;;;;;;18.48;3.95;;;;;;;7.28;100.00;101538.06;5056794;28;20885;-82
2024/01/23 10:55:16;;;;;;;14.40;3.55;;;;;;;7.24;100.00;101528.44;5051172;28;20812;-83
2024/01/23 10:57:47;;;;;;;23.05;3.88;;;;;;;7.19;100.00;101527.47;5015355;28;20049;-83
2024/01/23 11:00:20;;;;;;;22.08;4.28;;;;;;;7.46;100.00;101514.09;5066002;28;20349;-83
2024/01/23 11:02:48;;;;;;;20.00;5.90;;;;;;;7.44;99.72;101514.06;5004040;28;20496;-83
2024/01/23 11:05:15;;;;;;;19.00;5.60;;;;;;;7.50;100.00;101505.47;5037100;28;20075;-82
2024/01/23 11:07:55;;;;;;;16.92;4.00;;;;;;;7.59;99.12;101499.56;5047326;28;20072;-81
2024/01/23 11:10:55;;;;;;;18.83;3.83;;;;;;;7.49;98.96;101506.31;5040264;28;20079;-82
2024/01/23 11:13:35;;;;;;;30.08;6.38;;;;;;;7.45;99.13;101513.19;5017447;28;20466;-82
2024/01/23 11:16:06;;;;;;;14.52;4.18;;;;;;;7.45;98.73;101518.41;5026711;28;20486;-81
2024/01/23 11:18:34;;;;;;;19.52;4.28;;;;;;;7.45;98.13;101525.34;5025900;28;20057;-83
2024/01/23 11:21:08;;;;;;;23.65;5.18;;;;;;;7.41;98.39;101520.94;5021701;28;20071;-81